Time;durP1;ratioP1;P1;durP2;ratioP2;P2;SDS_P1;SDS_P2;PMS_P1;PMS_P2;Temp;Humidity;BMP_temperature;BMP_pressure;BME280_temperature;BME280_humidity;BME280_pressure;Samples;Min_cycle;Max_cycle;Signal;HPM_P1;HPM_P2
2024/02/05 00:00:20;;;;;;;3.63;2.38;;;;;;;6.83;74.67;101349.84;3143407;22;20024;-79
2024/02/05 00:01:33;;;;;;;2.30;2.10;;;;;;;6.83;74.27;101355.91;3143587;22;20016;-79
2024/02/05 00:02:48;;;;;;;2.58;2.33;;;;;;;6.84;74.69;101352.50;3144076;23;20019;-79
2024/02/05 00:04:01;;;;;;;3.35;3.03;;;;;;;6.86;74.60;101349.91;3144443;23;20352;-79
2024/02/05 00:05:16;;;;;;;5.22;4.13;;;;;;;6.87;74.61;101347.34;3143773;23;20194;-80
2024/02/05 00:06:29;;;;;;;2.30;2.10;;;;;;;6.87;74.82;101347.34;3143133;22;20024;-80
2024/02/05 00:07:45;;;;;;;4.47;2.17;;;;;;;6.89;74.52;101357.75;3143897;23;20091;-79
2024/02/05 00:08:58;;;;;;;2.95;2.22;;;;;;;6.88;74.70;101346.50;3144223;23;20047;-79
2024/02/05 00:10:13;;;;;;;2.85;2.10;;;;;;;6.88;74.63;101349.09;3142574;22;20024;-79
2024/02/05 00:11:26;;;;;;;3.20;2.15;;;;;;;6.88;74.42;101341.31;3148782;23;20020;-79
2024/02/05 00:12:40;;;;;;;2.58;2.17;;;;;;;6.89;74.50;101345.66;3149190;23;20016;-79
2024/02/05 00:13:54;;;;;;;3.15;2.05;;;;;;;6.90;74.27;101342.22;3146525;22;20024;-79
2024/02/05 00:15:09;;;;;;;3.28;2.78;;;;;;;6.90;74.52;101339.63;3144613;23;20051;-79
2024/02/05 00:16:23;;;;;;;4.07;2.83;;;;;;;6.89;74.57;101353.44;3144734;23;20024;-80
2024/02/05 00:17:38;;;;;;;3.53;2.72;;;;;;;6.90;74.46;101347.41;3143159;22;20016;-79
2024/02/05 00:18:52;;;;;;;3.90;2.35;;;;;;;6.89;74.93;101347.38;3144271;23;20024;-79
2024/02/05 00:20:08;;;;;;;3.65;2.42;;;;;;;6.87;74.72;101352.53;3144397;22;20047;-79
2024/02/05 00:21:21;;;;;;;3.00;2.63;;;;;;;6.85;74.50;101351.63;3144278;22;20071;-79
2024/02/05 00:22:36;;;;;;;7.13;5.72;;;;;;;6.85;74.85;101349.03;3144581;23;20012;-79
2024/02/05 00:23:51;;;;;;;2.30;2.10;;;;;;;6.84;74.67;101356.78;3144517;23;20419;-79
2024/02/05 00:25:06;;;;;;;2.65;1.92;;;;;;;6.83;75.02;101361.09;3144539;23;20051;-79
2024/02/05 00:26:20;;;;;;;3.95;2.80;;;;;;;6.84;74.96;101349.91;3144079;22;20458;-79
2024/02/05 00:27:34;;;;;;;4.70;2.40;;;;;;;6.83;74.90;101347.28;3149892;23;20070;-79
2024/02/05 00:28:48;;;;;;;2.58;2.38;;;;;;;6.82;74.84;101361.97;3144188;23;20029;-79
2024/02/05 00:30:04;;;;;;;2.47;2.28;;;;;;;6.81;75.06;101372.31;3143594;22;20312;-78
2024/02/05 00:31:17;;;;;;;3.55;2.63;;;;;;;6.79;75.11;101359.31;3144599;23;20024;-79
2024/02/05 00:32:31;;;;;;;2.58;2.00;;;;;;;6.80;75.23;101366.25;3144423;23;20066;-79
2024/02/05 00:33:45;;;;;;;3.63;3.03;;;;;;;6.80;74.95;101353.28;3143399;22;20024;-79
2024/02/05 00:35:00;;;;;;;3.08;2.50;;;;;;;6.78;75.10;101361.00;3144196;23;20060;-79
2024/02/05 00:36:13;;;;;;;2.33;2.13;;;;;;;6.80;75.21;101370.56;3144679;23;20024;-79
2024/02/05 00:37:28;;;;;;;3.40;3.10;;;;;;;6.78;74.82;101362.75;3142932;22;20026;-79
2024/02/05 00:38:42;;;;;;;3.10;2.80;;;;;;;6.76;75.30;101357.53;3144384;23;20399;-79
2024/02/05 00:39:57;;;;;;;3.63;2.55;;;;;;;6.78;75.54;101357.56;3143404;22;20032;-79
2024/02/05 00:41:11;;;;;;;4.43;2.58;;;;;;;6.76;75.67;101375.72;3149289;23;20021;-79
2024/02/05 00:42:25;;;;;;;7.82;3.35;;;;;;;6.74;75.50;101356.63;3143093;22;20102;-79
2024/02/05 00:43:39;;;;;;;2.25;2.05;;;;;;;6.73;75.75;101359.19;3143728;23;20024;-80
2024/02/05 00:44:54;;;;;;;5.10;3.50;;;;;;;6.71;75.75;101359.19;3143752;23;20026;-80
2024/02/05 00:46:07;;;;;;;3.50;2.88;;;;;;;6.71;75.84;101354.00;3142871;22;20033;-79
2024/02/05 00:47:22;;;;;;;3.28;2.53;;;;;;;6.70;75.77;101359.13;3143743;23;20083;-80
2024/02/05 00:48:35;;;;;;;3.60;2.78;;;;;;;6.70;75.64;101356.53;3144257;23;20076;-79
2024/02/05 00:49:49;;;;;;;4.18;3.45;;;;;;;6.68;75.71;101355.63;3144017;22;20027;-79
2024/02/05 00:51:03;;;;;;;3.20;2.75;;;;;;;6.66;76.03;101352.13;3149432;23;20024;-79
2024/02/05 00:52:18;;;;;;;2.95;2.65;;;;;;;6.64;76.09;101356.44;3144210;23;20407;-80
2024/02/05 00:53:31;;;;;;;2.05;1.85;;;;;;;6.65;76.27;101366.81;3146631;22;20027;-79
2024/02/05 00:54:46;;;;;;;3.72;3.08;;;;;;;6.65;76.05;101353.00;3144271;23;20096;-79
2024/02/05 00:56:01;;;;;;;5.57;2.58;;;;;;;6.65;76.12;101361.63;3144547;23;20347;-79
2024/02/05 00:57:15;;;;;;;3.50;2.85;;;;;;;6.66;76.22;101354.72;3143632;23;20098;-80
2024/02/05 00:58:28;;;;;;;3.70;3.00;;;;;;;6.65;75.99;101358.19;3147235;22;20039;-80
2024/02/05 00:59:44;;;;;;;5.35;2.28;;;;;;;6.65;76.40;101359.03;3146156;23;20047;-79
2024/02/05 01:00:57;;;;;;;3.90;2.53;;;;;;;6.65;76.50;101342.63;3143468;22;20020;-79
2024/02/05 01:02:12;;;;;;;2.63;2.22;;;;;;;6.63;76.46;101352.94;3144479;22;20047;-79
2024/02/05 01:03:25;;;;;;;3.38;3.03;;;;;;;6.64;76.42;101351.25;3148817;23;20344;-80
2024/02/05 01:04:40;;;;;;;5.18;2.97;;;;;;;6.64;76.49;101353.84;3144185;23;20102;-80
2024/02/05 01:05:53;;;;;;;3.40;2.50;;;;;;;6.63;76.48;101344.31;3145359;22;20024;-80
2024/02/05 01:07:08;;;;;;;2.33;2.13;;;;;;;6.62;76.49;101346.03;3144233;23;20026;-80
2024/02/05 01:08:22;;;;;;;4.40;3.47;;;;;;;6.62;76.50;101345.16;3143711;23;20048;-79
2024/02/05 01:09:36;;;;;;;5.07;2.58;;;;;;;6.61;76.13;101351.16;3146734;22;20023;-79
2024/02/05 01:10:50;;;;;;;3.28;2.97;;;;;;;6.62;76.20;101334.78;3148792;22;20023;-79
2024/02/05 01:12:06;;;;;;;3.30;2.22;;;;;;;6.62;76.43;101342.56;3143494;23;20447;-79
2024/02/05 01:13:19;;;;;;;3.65;2.85;;;;;;;6.61;76.37;101327.81;3143869;22;20119;-78
2024/02/05 01:14:34;;;;;;;3.05;2.70;;;;;;;6.62;76.50;101339.97;3144270;23;20118;-79
2024/02/05 01:15:48;;;;;;;3.80;3.08;;;;;;;6.63;76.37;101347.75;3144979;23;20356;-79
2024/02/05 01:17:03;;;;;;;2.90;2.45;;;;;;;6.64;76.24;101372.88;3143834;23;20054;-79
2024/02/05 01:18:16;;;;;;;4.57;2.60;;;;;;;6.64;76.18;101343.47;3143808;22;20024;-79
2024/02/05 01:19:31;;;;;;;3.30;2.60;;;;;;;6.66;76.29;101354.72;3144328;23;20100;-79
2024/02/05 01:20:44;;;;;;;3.40;3.10;;;;;;;6.65;76.46;101355.59;3144381;22;20031;-79
2024/02/05 01:21:59;;;;;;;2.38;2.17;;;;;;;6.67;76.37;101364.28;3146969;22;20098;-79
2024/02/05 01:23:13;;;;;;;2.95;2.58;;;;;;;6.69;76.31;101354.81;3145308;23;20031;-79
2024/02/05 01:24:27;;;;;;;3.30;2.75;;;;;;;6.69;76.11;101360.00;3145119;23;20074;-80
2024/02/05 01:25:41;;;;;;;5.15;2.78;;;;;;;6.71;75.99;101358.28;3144024;22;20023;-80
2024/02/05 01:26:55;;;;;;;3.58;2.33;;;;;;;6.71;76.42;101360.88;3145516;23;20020;-79
2024/02/05 01:28:10;;;;;;;3.15;2.70;;;;;;;6.72;76.01;101360.03;3145576;23;20054;-79
2024/02/05 01:29:24;;;;;;;4.32;2.92;;;;;;;6.72;76.13;101365.25;3144185;22;20024;-79
2024/02/05 01:30:39;;;;;;;3.70;2.20;;;;;;;6.73;76.15;101356.59;3145349;22;20027;-79
2024/02/05 01:31:53;;;;;;;4.18;3.78;;;;;;;6.73;76.05;101361.78;3145734;23;20095;-79
2024/02/05 01:33:07;;;;;;;4.93;3.22;;;;;;;6.73;75.88;101351.41;3150297;23;20027;-80
2024/02/05 01:34:21;;;;;;;3.00;2.50;;;;;;;6.73;75.64;101356.59;3143951;22;20091;-79
2024/02/05 01:35:35;;;;;;;3.15;2.67;;;;;;;6.72;75.84;101362.63;3146386;23;20017;-79
2024/02/05 01:36:49;;;;;;;3.25;2.42;;;;;;;6.71;75.86;101361.78;3147013;23;20080;-79
2024/02/05 01:38:03;;;;;;;3.00;2.60;;;;;;;6.71;76.07;101364.38;3147501;22;20040;-79
2024/02/05 01:39:18;;;;;;;4.63;2.45;;;;;;;6.72;76.01;101365.25;3151354;23;20083;-79
2024/02/05 01:40:34;;;;;;;3.65;2.45;;;;;;;6.72;75.85;101367.81;3144968;22;20031;-79
2024/02/05 01:41:48;;;;;;;4.00;3.60;;;;;;;6.71;75.96;101363.47;3144550;22;20054;-79
2024/02/05 01:43:02;;;;;;;2.88;2.30;;;;;;;6.71;75.82;101366.06;3144502;23;20020;-80
2024/02/05 01:44:18;;;;;;;4.03;2.25;;;;;;;6.71;75.98;101358.28;3144324;23;20597;-80
2024/02/05 01:45:33;;;;;;;2.40;2.13;;;;;;;6.70;75.80;101362.59;3143922;22;20383;-80
2024/02/05 01:46:48;;;;;;;3.83;2.38;;;;;;;6.70;75.97;101364.31;3149234;23;20028;-79
2024/02/05 01:48:03;;;;;;;3.78;2.75;;;;;;;6.68;75.93;101355.63;3143271;23;20532;-79
2024/02/05 01:49:17;;;;;;;5.50;2.53;;;;;;;6.66;75.92;101353.03;3144419;23;20029;-79
2024/02/05 01:50:31;;;;;;;5.93;3.13;;;;;;;6.66;75.83;101347.84;3143634;22;20023;-79
2024/02/05 01:51:48;;;;;;;2.25;1.90;;;;;;;6.66;76.06;101352.13;3149596;23;20020;-79
2024/02/05 01:53:02;;;;;;;4.55;2.67;;;;;;;6.66;76.21;101359.91;3144166;23;20017;-80
2024/02/05 01:54:18;;;;;;;5.05;2.92;;;;;;;6.66;76.25;101355.63;3144219;22;20024;-79
2024/02/05 01:55:32;;;;;;;3.17;2.50;;;;;;;6.67;75.80;101348.72;3143961;23;20024;-79
2024/02/05 01:56:47;;;;;;;2.90;2.55;;;;;;;6.67;76.00;101344.41;3144885;23;20048;-79
2024/02/05 01:58:00;;;;;;;6.05;2.35;;;;;;;6.68;75.87;101353.03;3144037;22;20379;-79
2024/02/05 01:59:15;;;;;;;4.60;2.78;;;;;;;6.68;75.91;101342.66;3144207;23;20043;-79
2024/02/05 02:00:30;;;;;;;3.17;2.40;;;;;;;6.67;75.71;101344.41;3143677;22;20449;-80
2024/02/05 02:01:45;;;;;;;3.50;2.35;;;;;;;6.69;75.91;101341.84;3147163;22;20024;-80
2024/02/05 02:02:58;;;;;;;3.17;2.40;;;;;;;6.68;75.80;101335.75;3144276;23;20031;-79
2024/02/05 02:04:13;;;;;;;3.60;2.40;;;;;;;6.68;75.79;101335.75;3145044;23;20418;-79
2024/02/05 02:05:27;;;;;;;3.65;2.22;;;;;;;6.69;75.75;101336.66;3143467;22;20024;-79
2024/02/05 02:06:42;;;;;;;6.70;2.67;;;;;;;6.70;75.62;101335.78;3149203;23;20072;-79
2024/02/05 02:07:55;;;;;;;3.58;2.15;;;;;;;6.71;75.61;101327.16;3145588;23;20091;-80
2024/02/05 02:09:13;;;;;;;2.28;1.90;;;;;;;6.72;75.49;101334.09;3143926;23;20028;-79
2024/02/05 02:10:27;;;;;;;3.78;2.75;;;;;;;6.72;75.54;101334.97;3142726;22;20024;-79
2024/02/05 02:11:41;;;;;;;2.72;2.25;;;;;;;6.73;75.49;101354.00;3143752;23;20693;-80
2024/02/05 02:12:55;;;;;;;2.40;2.17;;;;;;;6.73;75.49;101341.03;3144713;23;20050;-79
2024/02/05 02:14:09;;;;;;;2.58;2.38;;;;;;;6.73;75.50;101343.63;3143934;22;20558;-79
2024/02/05 02:15:23;;;;;;;3.60;3.20;;;;;;;6.73;75.34;101343.63;3145359;23;20031;-79
2024/02/05 02:16:39;;;;;;;3.60;2.30;;;;;;;6.74;75.07;101346.25;3149221;23;20095;-79
2024/02/05 02:17:54;;;;;;;2.65;1.88;;;;;;;6.76;75.50;101343.66;3154888;22;20035;-79
2024/02/05 02:19:18;;;;;;;4.80;3.25;;;;;;;6.78;75.38;101342.00;3159955;23;20012;-80
2024/02/05 02:20:40;;;;;;;2.55;2.13;;;;;;;6.78;75.43;101336.81;3145125;22;20024;-80
2024/02/05 02:21:59;;;;;;;3.80;2.22;;;;;;;6.77;75.25;101335.06;3144226;22;20071;-79
2024/02/05 02:23:18;;;;;;;1.80;1.60;;;;;;;6.79;75.11;101335.97;3147432;23;20020;-78
2024/02/05 02:24:34;;;;;;;3.45;2.58;;;;;;;6.79;75.23;101335.97;3149087;23;20047;-78
2024/02/05 02:25:49;;;;;;;4.72;1.88;;;;;;;6.81;75.16;101335.97;3144888;22;20043;-79
2024/02/05 02:27:04;;;;;;;3.75;1.92;;;;;;;6.82;75.11;101329.97;3144903;23;20047;-79
2024/02/05 02:28:18;;;;;;;2.72;1.75;;;;;;;6.83;75.05;101334.28;3144567;23;20020;-79
2024/02/05 02:29:32;;;;;;;4.10;2.15;;;;;;;6.82;75.10;101330.84;3143873;22;20123;-79
2024/02/05 02:30:46;;;;;;;2.17;1.98;;;;;;;6.84;74.91;101342.13;3144584;22;20024;-79
2024/02/05 02:32:08;;;;;;;3.60;2.53;;;;;;;6.85;74.95;101336.06;3144789;23;20099;-80
2024/02/05 02:33:23;;;;;;;5.53;2.60;;;;;;;6.86;74.88;101332.63;3143984;22;20020;-79
2024/02/05 02:34:41;;;;;;;2.50;2.25;;;;;;;6.87;74.86;101326.59;3144856;23;20020;-80
2024/02/05 02:35:59;;;;;;;3.95;2.40;;;;;;;6.89;74.92;101339.56;3144777;23;20055;-80
2024/02/05 02:37:14;;;;;;;2.30;2.00;;;;;;;6.89;74.98;101329.19;3144659;23;20024;-80
2024/02/05 02:38:33;;;;;;;3.30;1.70;;;;;;;6.90;74.71;101344.81;3143646;22;20024;-80
2024/02/05 02:39:53;;;;;;;9.38;2.72;;;;;;;6.89;74.42;101324.91;3144394;23;20531;-80
2024/02/05 02:41:11;;;;;;;2.55;1.63;;;;;;;6.91;74.60;101333.56;3144664;23;20043;-80
2024/02/05 02:42:26;;;;;;;2.20;1.85;;;;;;;6.92;74.38;101331.88;3143864;22;20392;-80
2024/02/05 02:43:45;;;;;;;3.05;2.55;;;;;;;6.94;74.66;101333.66;3144181;23;20028;-79
2024/02/05 02:45:01;;;;;;;3.45;2.00;;;;;;;6.94;74.33;101333.66;3148996;23;20019;-80
2024/02/05 02:46:14;;;;;;;1.75;1.55;;;;;;;6.95;74.61;101335.38;3143900;22;20072;-80
2024/02/05 02:47:29;;;;;;;3.03;2.08;;;;;;;6.95;74.04;101330.19;3144665;23;20024;-79
2024/02/05 02:48:42;;;;;;;2.55;2.20;;;;;;;6.95;74.46;101340.56;3144731;23;20031;-80
2024/02/05 02:49:57;;;;;;;1.85;1.63;;;;;;;6.97;74.14;101341.47;3143841;22;20031;-80
2024/02/05 02:51:10;;;;;;;3.60;2.58;;;;;;;6.97;73.96;101343.22;3144436;23;20024;-80
2024/02/05 02:52:25;;;;;;;2.45;2.00;;;;;;;6.97;73.85;101338.88;3144599;23;20081;-79
2024/02/05 02:53:39;;;;;;;2.47;2.08;;;;;;;6.99;73.92;101344.09;3144536;22;20111;-79
2024/02/05 02:54:54;;;;;;;1.88;1.55;;;;;;;6.98;73.98;101340.63;3144414;23;20107;-79
2024/02/05 02:56:08;;;;;;;3.58;2.42;;;;;;;6.99;73.81;101342.34;3144042;23;20031;-79
2024/02/05 02:57:22;;;;;;;3.60;2.30;;;;;;;7.00;73.82;101340.66;3144203;22;20031;-80
2024/02/05 02:58:36;;;;;;;3.50;2.13;;;;;;;7.01;73.86;101357.09;3144639;23;20027;-80
2024/02/05 02:59:51;;;;;;;4.93;2.38;;;;;;;7.01;73.78;101352.78;3144171;22;20020;-80
2024/02/05 03:01:04;;;;;;;2.85;1.50;;;;;;;7.03;73.78;101350.22;3144707;23;20036;-80
2024/02/05 03:02:20;;;;;;;3.28;2.22;;;;;;;7.02;73.65;101349.31;3143925;22;20443;-80
2024/02/05 03:03:33;;;;;;;3.90;1.67;;;;;;;7.03;73.89;101350.22;3144697;23;20024;-80
2024/02/05 03:04:47;;;;;;;2.95;1.75;;;;;;;7.04;73.70;101355.41;3148840;23;20467;-80
2024/02/05 03:06:01;;;;;;;5.40;2.42;;;;;;;7.04;73.76;101360.59;3144170;22;20338;-80
2024/02/05 03:07:15;;;;;;;2.78;2.50;;;;;;;7.05;73.84;101359.78;3145118;23;20091;-80
2024/02/05 03:08:29;;;;;;;2.67;2.47;;;;;;;7.05;73.48;101357.19;3144631;23;20024;-79
2024/02/05 03:09:44;;;;;;;3.08;2.17;;;;;;;7.06;73.75;101356.31;3143468;22;20100;-79
2024/02/05 03:10:58;;;;;;;3.60;2.03;;;;;;;7.07;73.60;101362.38;3144044;22;20487;-80
2024/02/05 03:12:13;;;;;;;2.63;1.42;;;;;;;7.07;73.30;101357.19;3144227;23;20032;-79
2024/02/05 03:13:26;;;;;;;3.63;3.28;;;;;;;7.07;73.69;101354.59;3143617;22;20031;-80
2024/02/05 03:14:41;;;;;;;6.72;3.72;;;;;;;7.06;73.38;101361.50;3148387;23;20027;-79
2024/02/05 03:15:54;;;;;;;2.30;1.85;;;;;;;7.07;73.71;101349.41;3149397;23;20020;-79
2024/02/05 03:17:08;;;;;;;4.07;1.88;;;;;;;7.06;73.44;101353.72;3143346;23;20028;-79
2024/02/05 03:18:22;;;;;;;3.70;2.10;;;;;;;7.05;73.59;101354.59;3142741;22;20020;-80
2024/02/05 03:19:36;;;;;;;3.78;1.60;;;;;;;7.05;73.66;101356.28;3143416;23;20368;-79
2024/02/05 03:20:50;;;;;;;2.97;2.08;;;;;;;7.05;73.94;101358.88;3142739;22;20535;-78
2024/02/05 03:22:04;;;;;;;2.53;1.85;;;;;;;7.05;73.70;101353.69;3142608;22;20027;-79
2024/02/05 03:23:18;;;;;;;2.75;2.50;;;;;;;7.05;73.97;101357.19;3143449;23;20027;-79
2024/02/05 03:24:32;;;;;;;2.05;1.67;;;;;;;7.06;73.82;101356.31;3143621;23;20020;-79
2024/02/05 03:25:49;;;;;;;2.65;2.42;;;;;;;7.06;73.66;101364.09;3143204;22;20024;-79
2024/02/05 03:27:03;;;;;;;3.15;2.28;;;;;;;7.08;73.70;101371.94;3144339;23;20024;-80
2024/02/05 03:28:17;;;;;;;1.95;1.80;;;;;;;7.08;73.72;101357.22;3143972;23;20020;-79
2024/02/05 03:29:31;;;;;;;5.05;1.98;;;;;;;7.08;73.83;101351.16;3143178;22;20112;-79
2024/02/05 03:30:45;;;;;;;3.47;1.20;;;;;;;7.08;73.72;101362.41;3143729;22;20024;-80
2024/02/05 03:31:59;;;;;;;3.15;2.05;;;;;;;7.08;73.53;101357.22;3143645;23;20095;-79
2024/02/05 03:33:14;;;;;;;3.75;2.40;;;;;;;7.08;73.74;101365.00;3144076;23;20016;-79
2024/02/05 03:34:28;;;;;;;5.72;2.20;;;;;;;7.08;73.58;101351.16;3145110;22;20024;-79
2024/02/05 03:35:42;;;;;;;4.72;2.00;;;;;;;7.09;73.63;101363.28;3145143;23;20047;-79
2024/02/05 03:36:56;;;;;;;2.05;1.80;;;;;;;7.09;73.62;101355.50;3144561;23;20031;-79
2024/02/05 03:38:10;;;;;;;4.38;2.38;;;;;;;7.08;73.63;101361.56;3143626;22;20028;-79
2024/02/05 03:39:26;;;;;;;2.85;1.70;;;;;;;7.08;73.71;101377.13;3143783;23;20020;-79
2024/02/05 03:40:39;;;;;;;8.13;2.05;;;;;;;7.06;74.09;101377.09;3148840;22;20089;-79
2024/02/05 03:41:55;;;;;;;7.00;1.95;;;;;;;7.05;73.60;101364.97;3142559;22;20439;-79
2024/02/05 03:43:08;;;;;;;4.60;1.83;;;;;;;7.07;73.77;101370.16;3143696;23;20466;-79
2024/02/05 03:44:23;;;;;;;4.55;1.83;;;;;;;7.07;73.68;101376.22;3144376;23;20020;-79
2024/02/05 03:45:36;;;;;;;5.38;1.70;;;;;;;7.07;73.78;101364.97;3146834;22;20355;-79
2024/02/05 03:46:51;;;;;;;2.47;1.70;;;;;;;7.06;73.62;101371.03;3144190;23;20024;-79
2024/02/05 03:48:06;;;;;;;3.95;2.70;;;;;;;7.05;73.47;101364.06;3144402;23;20028;-79
2024/02/05 03:49:20;;;;;;;2.45;1.88;;;;;;;7.04;73.73;101365.78;3143602;22;20439;-79
2024/02/05 03:50:33;;;;;;;2.42;1.73;;;;;;;7.05;73.84;101361.47;3143507;22;20020;-79
2024/02/05 03:51:48;;;;;;;2.28;2.08;;;;;;;7.03;73.87;101369.25;3148599;23;20024;-79
2024/02/05 03:53:02;;;;;;;3.08;1.88;;;;;;;7.03;74.06;101364.06;3143254;23;20020;-79
2024/02/05 03:54:17;;;;;;;2.42;1.70;;;;;;;7.03;73.87;101376.16;3142900;22;20526;-79
2024/02/05 03:55:30;;;;;;;3.17;2.17;;;;;;;7.02;73.87;101367.50;3143905;23;20028;-79
2024/02/05 03:56:45;;;;;;;3.03;2.20;;;;;;;7.01;74.29;101375.25;3143378;23;20026;-79
2024/02/05 03:58:02;;;;;;;12.20;4.95;;;;;;;7.01;73.99;101375.25;3142972;22;20024;-79
2024/02/05 03:59:16;;;;;;;2.28;2.08;;;;;;;7.01;74.30;101365.75;3142505;23;20040;-79
2024/02/05 04:00:30;;;;;;;3.63;2.28;;;;;;;6.98;74.11;101361.38;3143212;22;20035;-79
2024/02/05 04:01:44;;;;;;;3.17;1.67;;;;;;;6.98;74.34;101368.28;3143102;22;20020;-80
2024/02/05 04:02:58;;;;;;;1.98;1.73;;;;;;;6.97;74.52;101364.84;3144178;23;20450;-79
2024/02/05 04:04:13;;;;;;;2.75;2.13;;;;;;;6.96;74.46;101357.88;3148891;23;20111;-79
2024/02/05 04:05:28;;;;;;;3.65;2.45;;;;;;;6.95;74.65;101366.53;3142695;22;20023;-79
2024/02/05 04:06:42;;;;;;;4.18;2.25;;;;;;;6.95;74.55;101363.94;3143415;23;20370;-80
2024/02/05 04:07:57;;;;;;;4.70;1.92;;;;;;;6.95;74.62;101363.06;3143219;23;20024;-79
2024/02/05 04:09:11;;;;;;;3.17;1.83;;;;;;;6.94;74.86;101364.78;3143054;23;20085;-79
2024/02/05 04:10:25;;;;;;;4.32;2.38;;;;;;;6.95;74.62;101365.66;3142707;22;20533;-79
2024/02/05 04:11:40;;;;;;;8.73;2.50;;;;;;;6.95;74.78;101363.06;3143033;23;20012;-79
2024/02/05 04:12:53;;;;;;;2.63;1.88;;;;;;;6.94;74.95;101358.69;3143185;23;20024;-79
2024/02/05 04:14:10;;;;;;;3.83;1.95;;;;;;;6.94;74.67;101354.41;3142669;22;20043;-79
2024/02/05 04:15:23;;;;;;;2.42;1.40;;;;;;;6.94;74.63;101369.06;3142727;23;20093;-79
2024/02/05 04:16:38;;;;;;;3.97;2.13;;;;;;;6.94;74.82;101363.88;3143135;23;20017;-80
2024/02/05 04:17:51;;;;;;;2.67;1.67;;;;;;;6.94;74.72;101358.69;3145961;22;20087;-78
2024/02/05 04:19:06;;;;;;;2.85;2.65;;;;;;;6.93;74.73;101357.84;3143415;23;20099;-78
2024/02/05 04:20:19;;;;;;;3.08;1.70;;;;;;;6.93;74.77;101360.44;3142856;22;20031;-79
2024/02/05 04:21:33;;;;;;;2.00;1.75;;;;;;;6.93;74.72;101360.44;3142767;22;20023;-79
2024/02/05 04:22:48;;;;;;;1.90;1.70;;;;;;;6.93;74.66;101356.97;3147248;23;20039;-79
2024/02/05 04:24:03;;;;;;;8.02;1.85;;;;;;;6.92;74.94;101356.09;3143111;23;20070;-80
2024/02/05 04:25:16;;;;;;;5.00;2.08;;;;;;;6.92;75.02;101356.09;3148076;23;20027;-79
2024/02/05 04:26:30;;;;;;;2.03;1.85;;;;;;;6.92;74.73;101350.91;3142340;22;20028;-80
2024/02/05 04:27:44;;;;;;;3.85;3.42;;;;;;;6.93;74.61;101352.63;3142984;23;20055;-79
2024/02/05 04:28:59;;;;;;;3.25;1.83;;;;;;;6.94;74.80;101351.81;3148456;23;20339;-79
2024/02/05 04:30:16;;;;;;;3.40;2.40;;;;;;;6.94;74.75;101357.00;3142100;22;20051;-78
2024/02/05 04:31:30;;;;;;;3.00;2.30;;;;;;;6.96;74.56;101352.69;3142884;23;20024;-79
2024/02/05 04:32:43;;;;;;;3.47;2.45;;;;;;;6.98;74.71;101369.16;3143290;23;20024;-79
2024/02/05 04:33:58;;;;;;;3.63;2.75;;;;;;;6.98;74.62;101361.38;3142250;22;20020;-80
2024/02/05 04:35:11;;;;;;;6.88;2.67;;;;;;;6.99;74.92;101352.72;3142753;23;20308;-78
2024/02/05 04:36:26;;;;;;;2.42;1.70;;;;;;;7.01;74.78;101364.88;3144024;23;20024;-78
2024/02/05 04:37:42;;;;;;;2.47;1.63;;;;;;;7.01;74.60;101359.69;3143506;22;20097;-79
2024/02/05 04:38:56;;;;;;;2.25;1.30;;;;;;;7.00;74.56;101364.00;3143640;23;20371;-79
2024/02/05 04:40:10;;;;;;;2.42;2.08;;;;;;;7.03;74.39;101363.19;3143097;22;20031;-79
2024/02/05 04:41:25;;;;;;;2.28;1.73;;;;;;;7.03;74.36;101358.00;3142934;22;20347;-79
2024/02/05 04:42:39;;;;;;;3.70;1.65;;;;;;;7.04;74.22;101364.94;3147970;23;20023;-79
2024/02/05 04:43:53;;;;;;;2.45;1.40;;;;;;;7.05;74.24;101364.06;3143017;23;20078;-80
2024/02/05 04:45:08;;;;;;;2.42;2.08;;;;;;;7.05;74.32;101364.97;3142871;23;20478;-79
2024/02/05 04:46:24;;;;;;;5.60;1.88;;;;;;;7.06;74.14;101368.44;3142593;22;20098;-79
2024/02/05 04:47:38;;;;;;;2.40;1.45;;;;;;;7.07;73.99;101360.66;3147887;23;20363;-79
2024/02/05 04:48:52;;;;;;;5.35;2.08;;;;;;;7.09;74.09;101360.69;3142666;23;20048;-79
2024/02/05 04:50:06;;;;;;;3.30;1.70;;;;;;;7.09;74.07;101361.56;3141647;22;20027;-79
2024/02/05 04:51:20;;;;;;;3.70;1.35;;;;;;;7.11;73.91;101364.19;3142979;23;20355;-79
2024/02/05 04:52:34;;;;;;;2.17;1.83;;;;;;;7.11;74.19;101365.06;3142215;23;20020;-80
2024/02/05 04:53:48;;;;;;;2.50;1.73;;;;;;;7.14;74.01;101359.06;3142067;22;20091;-79
2024/02/05 04:55:02;;;;;;;4.90;1.88;;;;;;;7.16;73.85;101354.75;3142928;23;20024;-79
2024/02/05 04:56:16;;;;;;;3.08;1.83;;;;;;;7.16;73.74;101358.22;3143086;23;20317;-79
2024/02/05 04:57:30;;;;;;;1.98;1.67;;;;;;;7.18;73.81;101355.66;3143750;22;20031;-79
2024/02/05 04:58:44;;;;;;;1.75;1.27;;;;;;;7.19;73.59;101358.28;3144184;23;20355;-79
2024/02/05 04:59:58;;;;;;;2.97;1.67;;;;;;;7.21;73.43;101360.91;3143608;22;20024;-79
2024/02/05 05:01:12;;;;;;;3.75;1.92;;;;;;;7.22;73.57;101344.47;3148560;23;20028;-79
2024/02/05 05:02:27;;;;;;;2.60;1.40;;;;;;;7.23;73.50;101361.81;3143114;22;20024;-79
2024/02/05 05:03:41;;;;;;;2.75;2.05;;;;;;;7.25;73.50;101354.03;3143675;23;20040;-79
2024/02/05 05:04:55;;;;;;;4.93;2.08;;;;;;;7.27;73.54;101362.72;3143624;23;20463;-79
2024/02/05 05:06:09;;;;;;;4.68;1.92;;;;;;;7.27;73.04;101355.81;3143007;22;20035;-78
2024/02/05 05:07:23;;;;;;;1.33;1.23;;;;;;;7.30;72.89;101370.56;3143845;23;20024;-79
2024/02/05 05:08:37;;;;;;;1.90;1.40;;;;;;;7.31;73.06;101357.63;3148823;23;20046;-78
2024/02/05 05:09:51;;;;;;;1.25;1.15;;;;;;;7.31;72.66;101362.81;3143582;22;20031;-79
2024/02/05 05:11:05;;;;;;;1.88;1.15;;;;;;;7.34;72.55;101367.19;3143979;23;20098;-78
2024/02/05 05:12:18;;;;;;;6.40;1.80;;;;;;;7.36;72.50;101362.88;3144913;23;20020;-79
2024/02/05 05:13:33;;;;;;;4.32;1.52;;;;;;;7.35;72.28;101367.19;3144113;22;20405;-79
2024/02/05 05:14:46;;;;;;;2.63;1.40;;;;;;;7.36;72.41;101362.88;3144697;23;20020;-80
2024/02/05 05:16:02;;;;;;;1.77;1.55;;;;;;;7.36;72.16;101371.53;3144119;23;20507;-79
2024/02/05 05:17:16;;;;;;;1.73;1.00;;;;;;;7.38;72.41;101361.16;3144144;23;20529;-79
2024/02/05 05:18:32;;;;;;;3.05;1.27;;;;;;;7.38;72.59;101358.56;3143631;22;20024;-79
2024/02/05 05:19:45;;;;;;;6.38;1.77;;;;;;;7.38;72.13;101367.25;3144797;23;20024;-79
2024/02/05 05:21:00;;;;;;;1.52;1.40;;;;;;;7.40;72.25;101364.66;3144955;22;20026;-78
2024/02/05 05:22:13;;;;;;;1.40;1.10;;;;;;;7.40;71.88;101364.66;3144274;22;20103;-78
2024/02/05 05:23:27;;;;;;;1.40;1.30;;;;;;;7.41;71.97;101363.84;3144387;23;20069;-79
2024/02/05 05:24:41;;;;;;;1.30;1.05;;;;;;;7.42;71.55;101357.78;3144856;23;20028;-79
2024/02/05 05:25:55;;;;;;;4.45;1.67;;;;;;;7.42;71.64;101381.16;3143740;22;20020;-79
2024/02/05 05:27:09;;;;;;;2.03;1.42;;;;;;;7.42;71.78;101353.44;3144122;23;20024;-79
2024/02/05 05:28:23;;;;;;;1.58;1.35;;;;;;;7.45;71.74;101360.41;3143998;23;20048;-79
2024/02/05 05:29:36;;;;;;;1.98;1.25;;;;;;;7.45;71.67;101365.59;3142991;22;20039;-79
2024/02/05 05:30:51;;;;;;;5.35;1.20;;;;;;;7.46;71.43;101349.19;3146315;22;20020;-79
2024/02/05 05:32:05;;;;;;;1.67;1.20;;;;;;;7.47;71.52;101357.84;3143983;23;20039;-78
2024/02/05 05:33:19;;;;;;;1.17;0.93;;;;;;;7.48;71.16;101352.66;3143238;22;20024;-78
2024/02/05 05:34:34;;;;;;;1.13;0.90;;;;;;;7.49;71.39;101356.16;3144469;23;20482;-79
2024/02/05 05:35:49;;;;;;;1.17;1.05;;;;;;;7.50;70.90;101352.69;3149526;23;20392;-79
2024/02/05 05:37:03;;;;;;;1.38;1.00;;;;;;;7.50;71.16;101361.34;3143949;23;20024;-80
2024/02/05 05:38:17;;;;;;;4.05;1.20;;;;;;;7.51;70.96;101355.34;3143175;22;20020;-79
2024/02/05 05:39:31;;;;;;;1.25;1.10;;;;;;;7.52;70.94;101364.88;3144266;23;20020;-78
2024/02/05 05:40:45;;;;;;;2.92;1.40;;;;;;;7.53;70.92;101365.72;3143950;22;20024;-79
2024/02/05 05:41:59;;;;;;;2.85;1.15;;;;;;;7.52;70.83;101364.00;3143923;22;20031;-79
2024/02/05 05:43:13;;;;;;;3.17;1.08;;;;;;;7.52;70.65;101348.41;3144501;23;20031;-79
2024/02/05 05:44:27;;;;;;;2.30;1.27;;;;;;;7.53;70.46;101351.00;3143948;23;20024;-79
2024/02/05 05:45:41;;;;;;;1.30;1.10;;;;;;;7.52;70.81;101351.88;3142932;22;20026;-79
2024/02/05 05:46:55;;;;;;;1.50;1.38;;;;;;;7.54;70.75;101351.91;3143874;23;20404;-79
2024/02/05 05:48:10;;;;;;;4.53;1.17;;;;;;;7.54;70.68;101355.38;3144127;23;20024;-79
2024/02/05 05:49:23;;;;;;;3.55;1.40;;;;;;;7.54;70.67;101352.78;3143008;22;20099;-78
2024/02/05 05:50:39;;;;;;;2.38;1.20;;;;;;;7.56;70.72;101355.38;3143685;22;20347;-79